Saluda Gardens, South Carolina
Current Conditions -  °F | °C
As of 12:56 AM on Saturday 25 Oct 2014 (Local Time) from KCAE Reporting Station
Clear Clear  
Wind Chill: 48°   Ceiling: Unl
Heat Index: 48°   Visibility: 10mi
Dew Point: 43°   Wind: 0mph
Humidity: 83%   Direction: NA
Pressure: 30"   Gusts: NA
Location:  33.9973°N, 81.0998°W
Report Text: KCAE 250456Z 00000KT 10SM CLR 09/06 A3000 RMK AO2 SLP159 T00890061 402280067
Loading
Personal Weather Stations






























Interactive Weather Map
Tropical Storm Tracking
New forecast layout! Learn more

10-Day Weather Forecast

Advertisements
Track Severe Weather on mobile